sensor_id;sensor_type;location;lat;lon;timestamp;P1;durP1;ratioP1;P2;durP2;ratioP2
49548;SDS011;35450;44.518;7.466;2024-02-14T00:01:24;3.33;;;1.92;;
49548;SDS011;35450;44.518;7.466;2024-02-14T00:04:28;5.57;;;2.85;;
49548;SDS011;35450;44.518;7.466;2024-02-14T00:07:32;3.35;;;1.98;;
49548;SDS011;35450;44.518;7.466;2024-02-14T00:10:36;4.22;;;2.30;;
49548;SDS011;35450;44.518;7.466;2024-02-14T00:13:40;2.80;;;1.95;;
49548;SDS011;35450;44.518;7.466;2024-02-14T00:16:44;7.00;;;3.58;;
49548;SDS011;35450;44.518;7.466;2024-02-14T00:19:48;6.00;;;1.67;;
49548;SDS011;35450;44.518;7.466;2024-02-14T00:22:52;3.15;;;2.17;;
49548;SDS011;35450;44.518;7.466;2024-02-14T00:25:56;3.55;;;2.42;;
49548;SDS011;35450;44.518;7.466;2024-02-14T00:29:00;5.00;;;2.65;;
49548;SDS011;35450;44.518;7.466;2024-02-14T00:32:04;3.72;;;2.60;;
49548;SDS011;35450;44.518;7.466;2024-02-14T00:35:18;4.88;;;2.30;;
49548;SDS011;35450;44.518;7.466;2024-02-14T00:38:22;3.00;;;2.15;;
49548;SDS011;35450;44.518;7.466;2024-02-14T00:41:26;3.35;;;2.72;;
49548;SDS011;35450;44.518;7.466;2024-02-14T00:44:32;5.70;;;2.35;;
49548;SDS011;35450;44.518;7.466;2024-02-14T00:47:36;4.20;;;1.88;;
49548;SDS011;35450;44.518;7.466;2024-02-14T00:50:41;3.00;;;1.70;;
49548;SDS011;35450;44.518;7.466;2024-02-14T00:53:45;2.03;;;1.27;;
49548;SDS011;35450;44.518;7.466;2024-02-14T00:56:48;3.88;;;1.20;;
49548;SDS011;35450;44.518;7.466;2024-02-14T00:59:52;1.95;;;1.17;;
49548;SDS011;35450;44.518;7.466;2024-02-14T01:02:57;3.20;;;1.35;;
49548;SDS011;35450;44.518;7.466;2024-02-14T01:06:01;1.75;;;1.15;;
49548;SDS011;35450;44.518;7.466;2024-02-14T01:09:07;2.25;;;1.00;;
49548;SDS011;35450;44.518;7.466;2024-02-14T01:12:11;6.82;;;1.67;;
49548;SDS011;35450;44.518;7.466;2024-02-14T01:15:15;4.47;;;2.55;;
49548;SDS011;35450;44.518;7.466;2024-02-14T01:18:19;2.15;;;1.20;;
49548;SDS011;35450;44.518;7.466;2024-02-14T01:21:23;3.00;;;1.40;;
49548;SDS011;35450;44.518;7.466;2024-02-14T01:24:27;4.07;;;1.30;;
49548;SDS011;35450;44.518;7.466;2024-02-14T01:27:33;2.63;;;1.27;;
49548;SDS011;35450;44.518;7.466;2024-02-14T01:30:36;5.32;;;1.92;;
49548;SDS011;35450;44.518;7.466;2024-02-14T01:33:40;2.90;;;1.65;;
49548;SDS011;35450;44.518;7.466;2024-02-14T01:36:45;2.47;;;1.67;;
49548;SDS011;35450;44.518;7.466;2024-02-14T01:39:50;3.60;;;1.98;;
49548;SDS011;35450;44.518;7.466;2024-02-14T01:42:53;2.80;;;1.80;;
49548;SDS011;35450;44.518;7.466;2024-02-14T01:46:06;3.38;;;2.03;;
49548;SDS011;35450;44.518;7.466;2024-02-14T01:49:17;2.83;;;1.80;;
49548;SDS011;35450;44.518;7.466;2024-02-14T01:52:22;6.57;;;2.35;;
49548;SDS011;35450;44.518;7.466;2024-02-14T01:55:26;2.92;;;2.20;;
49548;SDS011;35450;44.518;7.466;2024-02-14T01:58:32;3.80;;;1.90;;
49548;SDS011;35450;44.518;7.466;2024-02-14T02:01:38;2.75;;;1.77;;
49548;SDS011;35450;44.518;7.466;2024-02-14T02:04:43;6.68;;;2.17;;
49548;SDS011;35450;44.518;7.466;2024-02-14T02:07:47;5.10;;;2.15;;
49548;SDS011;35450;44.518;7.466;2024-02-14T02:10:51;3.80;;;2.45;;
49548;SDS011;35450;44.518;7.466;2024-02-14T02:14:15;3.92;;;2.40;;
49548;SDS011;35450;44.518;7.466;2024-02-14T02:17:39;4.63;;;2.08;;
49548;SDS011;35450;44.518;7.466;2024-02-14T02:21:04;6.28;;;2.55;;
49548;SDS011;35450;44.518;7.466;2024-02-14T02:24:10;4.63;;;2.85;;
49548;SDS011;35450;44.518;7.466;2024-02-14T02:27:14;6.55;;;2.60;;
49548;SDS011;35450;44.518;7.466;2024-02-14T02:30:39;4.07;;;2.35;;
49548;SDS011;35450;44.518;7.466;2024-02-14T02:33:43;3.30;;;2.33;;
49548;SDS011;35450;44.518;7.466;2024-02-14T02:36:47;6.13;;;2.58;;
49548;SDS011;35450;44.518;7.466;2024-02-14T02:40:12;4.15;;;3.00;;
49548;SDS011;35450;44.518;7.466;2024-02-14T02:43:37;6.85;;;3.30;;
49548;SDS011;35450;44.518;7.466;2024-02-14T02:47:02;3.67;;;2.60;;
49548;SDS011;35450;44.518;7.466;2024-02-14T02:50:26;9.82;;;2.92;;
49548;SDS011;35450;44.518;7.466;2024-02-14T02:53:51;3.80;;;2.10;;
49548;SDS011;35450;44.518;7.466;2024-02-14T02:57:17;4.22;;;2.45;;
49548;SDS011;35450;44.518;7.466;2024-02-14T03:00:22;6.32;;;3.03;;
49548;SDS011;35450;44.518;7.466;2024-02-14T03:03:42;6.57;;;2.80;;
49548;SDS011;35450;44.518;7.466;2024-02-14T03:07:01;7.70;;;2.90;;
49548;SDS011;35450;44.518;7.466;2024-02-14T03:10:31;4.47;;;2.45;;
49548;SDS011;35450;44.518;7.466;2024-02-14T03:13:55;3.58;;;2.35;;
49548;SDS011;35450;44.518;7.466;2024-02-14T03:17:19;4.13;;;2.30;;
49548;SDS011;35450;44.518;7.466;2024-02-14T03:20:23;3.97;;;2.28;;
49548;SDS011;35450;44.518;7.466;2024-02-14T03:23:27;4.38;;;2.38;;
49548;SDS011;35450;44.518;7.466;2024-02-14T03:26:31;3.15;;;2.00;;
49548;SDS011;35450;44.518;7.466;2024-02-14T03:29:36;3.50;;;2.28;;
49548;SDS011;35450;44.518;7.466;2024-02-14T03:32:45;3.00;;;1.88;;
49548;SDS011;35450;44.518;7.466;2024-02-14T03:35:49;3.25;;;2.10;;
49548;SDS011;35450;44.518;7.466;2024-02-14T03:38:53;2.63;;;1.80;;
49548;SDS011;35450;44.518;7.466;2024-02-14T03:41:57;4.00;;;2.03;;
49548;SDS011;35450;44.518;7.466;2024-02-14T03:45:04;4.10;;;1.83;;
49548;SDS011;35450;44.518;7.466;2024-02-14T03:48:09;3.28;;;1.70;;
49548;SDS011;35450;44.518;7.466;2024-02-14T03:51:15;5.25;;;1.80;;
49548;SDS011;35450;44.518;7.466;2024-02-14T03:54:19;2.00;;;1.33;;
49548;SDS011;35450;44.518;7.466;2024-02-14T03:57:24;4.93;;;1.55;;
49548;SDS011;35450;44.518;7.466;2024-02-14T04:00:29;3.03;;;1.60;;
49548;SDS011;35450;44.518;7.466;2024-02-14T04:03:33;3.58;;;1.70;;
49548;SDS011;35450;44.518;7.466;2024-02-14T04:06:38;2.03;;;1.25;;
49548;SDS011;35450;44.518;7.466;2024-02-14T04:09:42;1.98;;;1.25;;
49548;SDS011;35450;44.518;7.466;2024-02-14T04:12:46;3.72;;;1.40;;
49548;SDS011;35450;44.518;7.466;2024-02-14T04:15:50;2.55;;;1.50;;
49548;SDS011;35450;44.518;7.466;2024-02-14T04:18:57;3.17;;;1.17;;
49548;SDS011;35450;44.518;7.466;2024-02-14T04:22:01;5.40;;;1.40;;
49548;SDS011;35450;44.518;7.466;2024-02-14T04:25:07;1.92;;;1.67;;
49548;SDS011;35450;44.518;7.466;2024-02-14T04:28:11;5.85;;;1.75;;
49548;SDS011;35450;44.518;7.466;2024-02-14T04:31:15;2.03;;;1.40;;
49548;SDS011;35450;44.518;7.466;2024-02-14T04:34:26;1.60;;;1.05;;
49548;SDS011;35450;44.518;7.466;2024-02-14T04:37:31;4.75;;;2.25;;
49548;SDS011;35450;44.518;7.466;2024-02-14T04:40:36;1.15;;;0.93;;
49548;SDS011;35450;44.518;7.466;2024-02-14T04:43:41;1.50;;;1.10;;
49548;SDS011;35450;44.518;7.466;2024-02-14T04:46:45;2.75;;;1.90;;
49548;SDS011;35450;44.518;7.466;2024-02-14T04:49:49;3.95;;;2.10;;
49548;SDS011;35450;44.518;7.466;2024-02-14T04:52:54;4.93;;;2.70;;
49548;SDS011;35450;44.518;7.466;2024-02-14T04:55:58;4.45;;;2.70;;
49548;SDS011;35450;44.518;7.466;2024-02-14T04:59:03;4.95;;;2.40;;
49548;SDS011;35450;44.518;7.466;2024-02-14T05:02:08;2.78;;;1.67;;
49548;SDS011;35450;44.518;7.466;2024-02-14T05:05:13;3.05;;;1.88;;
49548;SDS011;35450;44.518;7.466;2024-02-14T05:08:30;3.70;;;2.63;;
49548;SDS011;35450;44.518;7.466;2024-02-14T05:11:34;4.53;;;2.78;;
49548;SDS011;35450;44.518;7.466;2024-02-14T05:14:38;4.35;;;2.38;;
49548;SDS011;35450;44.518;7.466;2024-02-14T05:17:43;4.75;;;2.30;;
49548;SDS011;35450;44.518;7.466;2024-02-14T05:20:48;3.95;;;2.40;;
49548;SDS011;35450;44.518;7.466;2024-02-14T05:23:52;3.00;;;2.20;;
49548;SDS011;35450;44.518;7.466;2024-02-14T05:26:57;3.35;;;1.88;;
49548;SDS011;35450;44.518;7.466;2024-02-14T05:30:01;4.70;;;2.08;;
49548;SDS011;35450;44.518;7.466;2024-02-14T05:33:10;2.78;;;1.90;;
49548;SDS011;35450;44.518;7.466;2024-02-14T05:36:14;3.97;;;2.30;;
49548;SDS011;35450;44.518;7.466;2024-02-14T05:39:18;3.92;;;2.65;;
49548;SDS011;35450;44.518;7.466;2024-02-14T05:42:22;6.22;;;2.40;;
49548;SDS011;35450;44.518;7.466;2024-02-14T05:45:26;2.90;;;1.60;;
49548;SDS011;35450;44.518;7.466;2024-02-14T05:48:31;7.07;;;2.30;;
49548;SDS011;35450;44.518;7.466;2024-02-14T05:51:35;3.22;;;2.30;;
49548;SDS011;35450;44.518;7.466;2024-02-14T05:54:38;3.38;;;2.00;;
49548;SDS011;35450;44.518;7.466;2024-02-14T05:57:43;2.60;;;2.00;;
49548;SDS011;35450;44.518;7.466;2024-02-14T06:00:47;17.83;;;9.57;;
49548;SDS011;35450;44.518;7.466;2024-02-14T06:03:51;4.22;;;2.58;;
49548;SDS011;35450;44.518;7.466;2024-02-14T06:06:55;6.78;;;1.63;;
49548;SDS011;35450;44.518;7.466;2024-02-14T06:09:59;7.72;;;1.48;;
49548;SDS011;35450;44.518;7.466;2024-02-14T06:13:03;5.53;;;1.33;;
49548;SDS011;35450;44.518;7.466;2024-02-14T06:16:07;7.35;;;1.55;;
49548;SDS011;35450;44.518;7.466;2024-02-14T06:19:11;2.83;;;1.92;;
49548;SDS011;35450;44.518;7.466;2024-02-14T06:22:15;2.63;;;1.38;;
49548;SDS011;35450;44.518;7.466;2024-02-14T06:25:20;2.65;;;1.80;;
49548;SDS011;35450;44.518;7.466;2024-02-14T06:28:33;3.97;;;2.45;;
49548;SDS011;35450;44.518;7.466;2024-02-14T06:31:37;12.82;;;5.60;;
49548;SDS011;35450;44.518;7.466;2024-02-14T06:34:41;10.35;;;3.80;;
49548;SDS011;35450;44.518;7.466;2024-02-14T06:37:45;5.78;;;3.17;;
49548;SDS011;35450;44.518;7.466;2024-02-14T06:40:49;5.32;;;2.40;;
49548;SDS011;35450;44.518;7.466;2024-02-14T06:43:54;8.82;;;3.22;;
49548;SDS011;35450;44.518;7.466;2024-02-14T06:46:58;5.95;;;3.65;;
49548;SDS011;35450;44.518;7.466;2024-02-14T06:50:02;5.82;;;3.08;;
49548;SDS011;35450;44.518;7.466;2024-02-14T06:53:08;6.55;;;3.80;;
49548;SDS011;35450;44.518;7.466;2024-02-14T06:56:12;7.03;;;4.53;;
49548;SDS011;35450;44.518;7.466;2024-02-14T06:59:16;7.75;;;3.40;;
49548;SDS011;35450;44.518;7.466;2024-02-14T07:02:20;10.68;;;3.97;;
49548;SDS011;35450;44.518;7.466;2024-02-14T07:05:25;17.67;;;8.23;;
49548;SDS011;35450;44.518;7.466;2024-02-14T07:08:31;51.17;;;21.10;;
49548;SDS011;35450;44.518;7.466;2024-02-14T07:11:35;29.27;;;13.90;;
49548;SDS011;35450;44.518;7.466;2024-02-14T07:14:41;27.17;;;11.45;;
49548;SDS011;35450;44.518;7.466;2024-02-14T07:17:45;96.90;;;44.15;;
49548;SDS011;35450;44.518;7.466;2024-02-14T07:20:49;82.85;;;37.60;;
49548;SDS011;35450;44.518;7.466;2024-02-14T07:23:54;19.25;;;8.30;;
49548;SDS011;35450;44.518;7.466;2024-02-14T07:26:58;39.03;;;16.38;;
49548;SDS011;35450;44.518;7.466;2024-02-14T07:30:02;31.63;;;16.55;;
49548;SDS011;35450;44.518;7.466;2024-02-14T07:33:07;122.05;;;57.22;;
49548;SDS011;35450;44.518;7.466;2024-02-14T07:36:11;91.45;;;46.03;;
49548;SDS011;35450;44.518;7.466;2024-02-14T07:39:15;62.17;;;30.73;;
49548;SDS011;35450;44.518;7.466;2024-02-14T07:42:20;56.78;;;23.90;;
49548;SDS011;35450;44.518;7.466;2024-02-14T07:45:24;45.97;;;24.40;;
49548;SDS011;35450;44.518;7.466;2024-02-14T07:48:28;59.78;;;27.92;;
49548;SDS011;35450;44.518;7.466;2024-02-14T07:51:31;55.20;;;26.13;;
49548;SDS011;35450;44.518;7.466;2024-02-14T07:54:40;78.63;;;38.67;;
49548;SDS011;35450;44.518;7.466;2024-02-14T07:57:45;78.22;;;40.50;;
49548;SDS011;35450;44.518;7.466;2024-02-14T08:00:49;48.58;;;25.58;;
49548;SDS011;35450;44.518;7.466;2024-02-14T08:03:54;47.00;;;24.23;;
49548;SDS011;35450;44.518;7.466;2024-02-14T08:06:58;41.13;;;21.20;;
49548;SDS011;35450;44.518;7.466;2024-02-14T08:10:02;31.45;;;15.98;;
49548;SDS011;35450;44.518;7.466;2024-02-14T08:13:08;22.27;;;10.32;;
49548;SDS011;35450;44.518;7.466;2024-02-14T08:16:12;11.77;;;5.45;;
49548;SDS011;35450;44.518;7.466;2024-02-14T08:19:16;16.90;;;4.97;;
49548;SDS011;35450;44.518;7.466;2024-02-14T08:22:21;6.57;;;4.25;;
49548;SDS011;35450;44.518;7.466;2024-02-14T08:25:25;12.10;;;3.95;;
49548;SDS011;35450;44.518;7.466;2024-02-14T08:28:30;7.22;;;3.63;;
49548;SDS011;35450;44.518;7.466;2024-02-14T08:31:34;13.73;;;3.58;;
49548;SDS011;35450;44.518;7.466;2024-02-14T08:34:38;8.25;;;3.53;;
49548;SDS011;35450;44.518;7.466;2024-02-14T08:37:42;10.27;;;3.53;;
49548;SDS011;35450;44.518;7.466;2024-02-14T08:40:46;8.32;;;3.67;;
49548;SDS011;35450;44.518;7.466;2024-02-14T08:43:50;5.68;;;3.45;;
49548;SDS011;35450;44.518;7.466;2024-02-14T08:46:55;5.85;;;3.80;;
49548;SDS011;35450;44.518;7.466;2024-02-14T08:49:59;6.28;;;3.72;;
49548;SDS011;35450;44.518;7.466;2024-02-14T08:53:03;8.00;;;4.18;;
49548;SDS011;35450;44.518;7.466;2024-02-14T08:56:08;16.48;;;4.15;;
49548;SDS011;35450;44.518;7.466;2024-02-14T08:59:12;7.65;;;3.97;;
49548;SDS011;35450;44.518;7.466;2024-02-14T09:02:16;9.52;;;3.25;;
49548;SDS011;35450;44.518;7.466;2024-02-14T09:05:20;10.20;;;4.70;;
49548;SDS011;35450;44.518;7.466;2024-02-14T09:08:25;9.63;;;3.58;;
49548;SDS011;35450;44.518;7.466;2024-02-14T09:11:29;6.10;;;3.60;;
49548;SDS011;35450;44.518;7.466;2024-02-14T09:14:35;8.75;;;3.88;;
49548;SDS011;35450;44.518;7.466;2024-02-14T09:17:39;7.45;;;3.30;;
49548;SDS011;35450;44.518;7.466;2024-02-14T09:20:45;10.25;;;4.05;;
49548;SDS011;35450;44.518;7.466;2024-02-14T09:23:49;5.55;;;3.63;;
49548;SDS011;35450;44.518;7.466;2024-02-14T09:26:53;6.22;;;4.07;;
49548;SDS011;35450;44.518;7.466;2024-02-14T09:29:58;6.22;;;3.10;;
49548;SDS011;35450;44.518;7.466;2024-02-14T09:33:02;12.00;;;3.83;;
49548;SDS011;35450;44.518;7.466;2024-02-14T09:36:08;9.63;;;3.50;;
49548;SDS011;35450;44.518;7.466;2024-02-14T09:39:13;5.57;;;3.70;;
49548;SDS011;35450;44.518;7.466;2024-02-14T09:42:23;5.47;;;3.15;;
49548;SDS011;35450;44.518;7.466;2024-02-14T09:45:33;5.97;;;3.60;;
49548;SDS011;35450;44.518;7.466;2024-02-14T09:48:37;4.57;;;2.88;;
49548;SDS011;35450;44.518;7.466;2024-02-14T09:51:42;7.10;;;3.53;;
49548;SDS011;35450;44.518;7.466;2024-02-14T09:54:48;16.80;;;4.03;;
49548;SDS011;35450;44.518;7.466;2024-02-14T09:57:52;9.35;;;4.32;;
49548;SDS011;35450;44.518;7.466;2024-02-14T10:00:58;7.22;;;4.15;;
49548;SDS011;35450;44.518;7.466;2024-02-14T10:04:04;8.82;;;4.82;;
49548;SDS011;35450;44.518;7.466;2024-02-14T10:07:12;7.05;;;4.72;;
49548;SDS011;35450;44.518;7.466;2024-02-14T10:10:16;9.63;;;4.88;;
49548;SDS011;35450;44.518;7.466;2024-02-14T10:13:28;8.98;;;5.15;;
49548;SDS011;35450;44.518;7.466;2024-02-14T10:16:34;7.57;;;4.90;;
49548;SDS011;35450;44.518;7.466;2024-02-14T10:19:38;7.68;;;4.93;;
49548;SDS011;35450;44.518;7.466;2024-02-14T10:22:43;7.25;;;4.78;;
49548;SDS011;35450;44.518;7.466;2024-02-14T10:25:58;11.77;;;5.30;;
49548;SDS011;35450;44.518;7.466;2024-02-14T10:29:02;10.43;;;5.35;;
49548;SDS011;35450;44.518;7.466;2024-02-14T10:32:06;11.70;;;5.53;;
49548;SDS011;35450;44.518;7.466;2024-02-14T10:35:10;8.13;;;5.40;;
49548;SDS011;35450;44.518;7.466;2024-02-14T10:38:17;12.73;;;5.50;;
49548;SDS011;35450;44.518;7.466;2024-02-14T10:41:23;9.65;;;5.07;;
49548;SDS011;35450;44.518;7.466;2024-02-14T10:44:28;8.07;;;5.80;;
49548;SDS011;35450;44.518;7.466;2024-02-14T10:47:34;11.88;;;6.13;;
49548;SDS011;35450;44.518;7.466;2024-02-14T10:50:43;11.68;;;6.30;;
49548;SDS011;35450;44.518;7.466;2024-02-14T10:53:49;9.27;;;5.45;;
49548;SDS011;35450;44.518;7.466;2024-02-14T10:56:56;10.85;;;5.30;;
49548;SDS011;35450;44.518;7.466;2024-02-14T11:00:07;12.77;;;5.93;;
49548;SDS011;35450;44.518;7.466;2024-02-14T11:03:13;7.82;;;5.38;;
49548;SDS011;35450;44.518;7.466;2024-02-14T11:06:19;8.10;;;5.63;;
49548;SDS011;35450;44.518;7.466;2024-02-14T11:09:31;13.85;;;5.75;;
49548;SDS011;35450;44.518;7.466;2024-02-14T11:12:37;11.52;;;5.85;;
49548;SDS011;35450;44.518;7.466;2024-02-14T11:15:44;8.77;;;5.60;;
49548;SDS011;35450;44.518;7.466;2024-02-14T11:18:50;8.52;;;5.43;;
49548;SDS011;35450;44.518;7.466;2024-02-14T11:21:54;11.52;;;5.68;;
49548;SDS011;35450;44.518;7.466;2024-02-14T11:24:59;10.10;;;5.30;;
49548;SDS011;35450;44.518;7.466;2024-02-14T11:28:23;7.32;;;4.90;;
49548;SDS011;35450;44.518;7.466;2024-02-14T11:31:35;7.70;;;5.18;;
49548;SDS011;35450;44.518;7.466;2024-02-14T11:34:41;7.38;;;4.82;;
49548;SDS011;35450;44.518;7.466;2024-02-14T11:37:50;8.10;;;4.55;;
49548;SDS011;35450;44.518;7.466;2024-02-14T11:40:55;14.07;;;4.88;;
49548;SDS011;35450;44.518;7.466;2024-02-14T11:44:03;8.85;;;5.15;;
49548;SDS011;35450;44.518;7.466;2024-02-14T11:47:09;9.20;;;5.35;;
49548;SDS011;35450;44.518;7.466;2024-02-14T11:50:13;11.27;;;6.25;;
49548;SDS011;35450;44.518;7.466;2024-02-14T11:53:18;8.02;;;4.85;;
49548;SDS011;35450;44.518;7.466;2024-02-14T11:56:22;7.57;;;4.95;;
49548;SDS011;35450;44.518;7.466;2024-02-14T11:59:27;9.02;;;5.40;;
49548;SDS011;35450;44.518;7.466;2024-02-14T12:02:31;9.77;;;6.38;;
49548;SDS011;35450;44.518;7.466;2024-02-14T12:05:35;8.52;;;5.90;;
49548;SDS011;35450;44.518;7.466;2024-02-14T12:08:40;8.73;;;6.30;;
49548;SDS011;35450;44.518;7.466;2024-02-14T12:11:46;10.30;;;6.53;;
49548;SDS011;35450;44.518;7.466;2024-02-14T12:14:53;11.35;;;6.20;;
49548;SDS011;35450;44.518;7.466;2024-02-14T12:17:57;9.75;;;5.45;;
49548;SDS011;35450;44.518;7.466;2024-02-14T12:21:04;11.07;;;6.07;;
49548;SDS011;35450;44.518;7.466;2024-02-14T12:24:12;9.48;;;5.32;;
49548;SDS011;35450;44.518;7.466;2024-02-14T12:27:17;12.63;;;5.00;;
49548;SDS011;35450;44.518;7.466;2024-02-14T12:30:22;10.80;;;4.78;;
49548;SDS011;35450;44.518;7.466;2024-02-14T12:33:32;13.13;;;5.63;;
49548;SDS011;35450;44.518;7.466;2024-02-14T12:36:36;10.65;;;4.68;;
49548;SDS011;35450;44.518;7.466;2024-02-14T12:39:41;7.13;;;4.90;;
49548;SDS011;35450;44.518;7.466;2024-02-14T12:42:45;8.40;;;4.88;;
49548;SDS011;35450;44.518;7.466;2024-02-14T12:45:49;8.10;;;5.05;;
49548;SDS011;35450;44.518;7.466;2024-02-14T12:48:53;8.27;;;4.60;;
49548;SDS011;35450;44.518;7.466;2024-02-14T12:51:58;9.30;;;5.22;;
49548;SDS011;35450;44.518;7.466;2024-02-14T12:55:02;10.43;;;6.82;;
49548;SDS011;35450;44.518;7.466;2024-02-14T12:58:07;7.72;;;4.88;;
49548;SDS011;35450;44.518;7.466;2024-02-14T13:01:12;9.93;;;4.60;;
49548;SDS011;35450;44.518;7.466;2024-02-14T13:04:18;10.77;;;5.88;;
49548;SDS011;35450;44.518;7.466;2024-02-14T13:07:23;10.65;;;5.25;;
49548;SDS011;35450;44.518;7.466;2024-02-14T13:10:27;9.52;;;4.93;;
49548;SDS011;35450;44.518;7.466;2024-02-14T13:13:32;8.13;;;4.90;;
49548;SDS011;35450;44.518;7.466;2024-02-14T13:16:37;9.13;;;5.70;;
49548;SDS011;35450;44.518;7.466;2024-02-14T13:19:42;8.30;;;5.65;;
49548;SDS011;35450;44.518;7.466;2024-02-14T13:22:46;11.05;;;6.75;;
49548;SDS011;35450;44.518;7.466;2024-02-14T13:25:50;8.82;;;5.75;;
49548;SDS011;35450;44.518;7.466;2024-02-14T13:28:54;10.32;;;6.55;;
49548;SDS011;35450;44.518;7.466;2024-02-14T13:31:59;11.45;;;6.00;;
49548;SDS011;35450;44.518;7.466;2024-02-14T13:35:05;12.40;;;6.93;;
49548;SDS011;35450;44.518;7.466;2024-02-14T13:38:09;9.95;;;6.55;;
49548;SDS011;35450;44.518;7.466;2024-02-14T13:41:13;12.77;;;6.35;;
49548;SDS011;35450;44.518;7.466;2024-02-14T13:44:18;11.88;;;6.85;;
49548;SDS011;35450;44.518;7.466;2024-02-14T13:47:22;10.68;;;6.97;;
49548;SDS011;35450;44.518;7.466;2024-02-14T13:50:28;13.18;;;7.03;;
49548;SDS011;35450;44.518;7.466;2024-02-14T13:53:31;12.63;;;7.05;;
49548;SDS011;35450;44.518;7.466;2024-02-14T13:56:35;11.32;;;6.65;;
49548;SDS011;35450;44.518;7.466;2024-02-14T13:59:40;13.23;;;7.50;;
49548;SDS011;35450;44.518;7.466;2024-02-14T14:02:45;18.27;;;6.82;;
49548;SDS011;35450;44.518;7.466;2024-02-14T14:05:49;12.93;;;7.93;;
49548;SDS011;35450;44.518;7.466;2024-02-14T14:08:53;10.98;;;6.78;;
49548;SDS011;35450;44.518;7.466;2024-02-14T14:11:58;17.90;;;7.55;;
49548;SDS011;35450;44.518;7.466;2024-02-14T14:15:02;12.30;;;7.72;;
49548;SDS011;35450;44.518;7.466;2024-02-14T14:18:09;11.80;;;7.25;;
49548;SDS011;35450;44.518;7.466;2024-02-14T14:21:14;12.07;;;7.13;;
49548;SDS011;35450;44.518;7.466;2024-02-14T14:24:18;12.93;;;7.07;;
49548;SDS011;35450;44.518;7.466;2024-02-14T14:27:22;11.70;;;6.85;;
49548;SDS011;35450;44.518;7.466;2024-02-14T14:30:27;12.07;;;6.85;;
49548;SDS011;35450;44.518;7.466;2024-02-14T14:33:31;11.50;;;6.07;;
49548;SDS011;35450;44.518;7.466;2024-02-14T14:36:35;10.63;;;6.55;;
49548;SDS011;35450;44.518;7.466;2024-02-14T14:39:41;9.65;;;5.50;;
49548;SDS011;35450;44.518;7.466;2024-02-14T14:42:47;12.52;;;6.50;;
49548;SDS011;35450;44.518;7.466;2024-02-14T14:45:51;10.32;;;6.25;;
49548;SDS011;35450;44.518;7.466;2024-02-14T14:48:57;11.27;;;5.70;;
49548;SDS011;35450;44.518;7.466;2024-02-14T14:52:01;12.02;;;5.95;;
49548;SDS011;35450;44.518;7.466;2024-02-14T14:55:07;10.38;;;6.40;;
49548;SDS011;35450;44.518;7.466;2024-02-14T14:58:12;9.05;;;5.28;;
49548;SDS011;35450;44.518;7.466;2024-02-14T15:01:16;9.95;;;6.10;;
49548;SDS011;35450;44.518;7.466;2024-02-14T15:04:20;13.55;;;6.47;;
49548;SDS011;35450;44.518;7.466;2024-02-14T15:07:24;13.70;;;6.43;;
49548;SDS011;35450;44.518;7.466;2024-02-14T15:10:28;10.98;;;5.57;;
49548;SDS011;35450;44.518;7.466;2024-02-14T15:13:32;13.52;;;5.55;;
49548;SDS011;35450;44.518;7.466;2024-02-14T15:16:36;8.82;;;5.55;;
49548;SDS011;35450;44.518;7.466;2024-02-14T15:19:41;9.85;;;5.68;;
49548;SDS011;35450;44.518;7.466;2024-02-14T15:22:45;10.13;;;5.80;;
49548;SDS011;35450;44.518;7.466;2024-02-14T15:25:49;12.27;;;5.50;;
49548;SDS011;35450;44.518;7.466;2024-02-14T15:28:53;13.93;;;7.18;;
49548;SDS011;35450;44.518;7.466;2024-02-14T15:32:20;13.40;;;6.70;;
49548;SDS011;35450;44.518;7.466;2024-02-14T15:35:44;15.45;;;7.85;;
49548;SDS011;35450;44.518;7.466;2024-02-14T15:38:48;13.77;;;7.03;;
49548;SDS011;35450;44.518;7.466;2024-02-14T15:41:53;10.40;;;6.63;;
49548;SDS011;35450;44.518;7.466;2024-02-14T15:44:57;10.82;;;6.03;;
49548;SDS011;35450;44.518;7.466;2024-02-14T15:48:01;9.90;;;5.68;;
49548;SDS011;35450;44.518;7.466;2024-02-14T15:51:06;9.25;;;5.90;;
49548;SDS011;35450;44.518;7.466;2024-02-14T15:54:10;13.50;;;8.25;;
49548;SDS011;35450;44.518;7.466;2024-02-14T15:57:14;25.30;;;9.10;;
49548;SDS011;35450;44.518;7.466;2024-02-14T16:00:18;20.88;;;9.93;;
49548;SDS011;35450;44.518;7.466;2024-02-14T16:03:22;23.25;;;10.18;;
49548;SDS011;35450;44.518;7.466;2024-02-14T16:06:26;21.23;;;10.85;;
49548;SDS011;35450;44.518;7.466;2024-02-14T16:09:30;22.65;;;9.52;;
49548;SDS011;35450;44.518;7.466;2024-02-14T16:12:34;13.32;;;8.05;;
49548;SDS011;35450;44.518;7.466;2024-02-14T16:15:38;20.42;;;8.77;;
49548;SDS011;35450;44.518;7.466;2024-02-14T16:18:42;23.08;;;10.10;;
49548;SDS011;35450;44.518;7.466;2024-02-14T16:21:47;69.47;;;41.70;;
49548;SDS011;35450;44.518;7.466;2024-02-14T16:24:51;30.52;;;16.88;;
49548;SDS011;35450;44.518;7.466;2024-02-14T16:27:57;12.38;;;7.30;;
49548;SDS011;35450;44.518;7.466;2024-02-14T16:31:01;22.15;;;8.88;;
49548;SDS011;35450;44.518;7.466;2024-02-14T16:34:05;25.27;;;10.90;;
49548;SDS011;35450;44.518;7.466;2024-02-14T16:37:12;19.10;;;6.95;;
49548;SDS011;35450;44.518;7.466;2024-02-14T16:40:21;17.75;;;9.20;;
49548;SDS011;35450;44.518;7.466;2024-02-14T16:43:25;15.15;;;6.93;;
49548;SDS011;35450;44.518;7.466;2024-02-14T16:46:29;14.05;;;6.70;;
49548;SDS011;35450;44.518;7.466;2024-02-14T16:49:34;15.50;;;8.32;;
49548;SDS011;35450;44.518;7.466;2024-02-14T16:52:44;15.13;;;7.72;;
49548;SDS011;35450;44.518;7.466;2024-02-14T16:56:00;15.98;;;7.03;;
49548;SDS011;35450;44.518;7.466;2024-02-14T16:59:04;12.68;;;6.90;;
49548;SDS011;35450;44.518;7.466;2024-02-14T17:02:08;16.65;;;7.55;;
49548;SDS011;35450;44.518;7.466;2024-02-14T17:05:13;11.90;;;6.85;;
49548;SDS011;35450;44.518;7.466;2024-02-14T17:08:19;12.77;;;6.85;;
49548;SDS011;35450;44.518;7.466;2024-02-14T17:11:24;35.00;;;7.93;;
49548;SDS011;35450;44.518;7.466;2024-02-14T17:14:30;17.70;;;8.07;;
49548;SDS011;35450;44.518;7.466;2024-02-14T17:17:35;17.67;;;8.55;;
49548;SDS011;35450;44.518;7.466;2024-02-14T17:20:40;18.92;;;8.15;;
49548;SDS011;35450;44.518;7.466;2024-02-14T17:23:46;26.02;;;9.43;;
49548;SDS011;35450;44.518;7.466;2024-02-14T17:26:50;16.67;;;7.13;;
49548;SDS011;35450;44.518;7.466;2024-02-14T17:29:54;15.02;;;7.22;;
49548;SDS011;35450;44.518;7.466;2024-02-14T17:32:58;20.73;;;7.60;;
49548;SDS011;35450;44.518;7.466;2024-02-14T17:36:04;16.65;;;8.55;;
49548;SDS011;35450;44.518;7.466;2024-02-14T17:39:08;17.05;;;7.68;;
49548;SDS011;35450;44.518;7.466;2024-02-14T17:42:12;12.48;;;7.05;;
49548;SDS011;35450;44.518;7.466;2024-02-14T17:45:16;16.13;;;7.60;;
49548;SDS011;35450;44.518;7.466;2024-02-14T17:48:21;19.95;;;9.15;;
49548;SDS011;35450;44.518;7.466;2024-02-14T17:51:26;20.58;;;8.85;;
49548;SDS011;35450;44.518;7.466;2024-02-14T17:54:30;16.20;;;9.55;;
49548;SDS011;35450;44.518;7.466;2024-02-14T17:57:34;16.35;;;9.27;;
49548;SDS011;35450;44.518;7.466;2024-02-14T18:00:39;13.95;;;8.55;;
49548;SDS011;35450;44.518;7.466;2024-02-14T18:03:43;14.57;;;8.00;;
49548;SDS011;35450;44.518;7.466;2024-02-14T18:06:47;16.05;;;9.82;;
49548;SDS011;35450;44.518;7.466;2024-02-14T18:09:51;19.73;;;8.57;;
49548;SDS011;35450;44.518;7.466;2024-02-14T18:12:55;19.77;;;8.52;;
49548;SDS011;35450;44.518;7.466;2024-02-14T18:15:59;19.48;;;10.65;;
49548;SDS011;35450;44.518;7.466;2024-02-14T18:19:03;21.48;;;12.05;;
49548;SDS011;35450;44.518;7.466;2024-02-14T18:22:07;15.07;;;9.73;;
49548;SDS011;35450;44.518;7.466;2024-02-14T18:25:12;17.17;;;8.95;;
49548;SDS011;35450;44.518;7.466;2024-02-14T18:28:16;14.48;;;8.55;;
49548;SDS011;35450;44.518;7.466;2024-02-14T18:31:21;14.25;;;8.23;;